Time;durP1;ratioP1;P1;durP2;ratioP2;P2;SDS_P1;SDS_P2;PMS_P1;PMS_P2;Temp;Humidity;BMP_temperature;BMP_pressure;BME280_temperature;BME280_humidity;BME280_pressure;Samples;Min_cycle;Max_cycle;Signal;HPM_P1;HPM_P2
2021/10/13 00:00:54;;;;;;;8.10;4.93;;;6.80;99.90;;;7.71;100.00;98655.22;5073893;28;20456;-79
2021/10/13 00:03:24;;;;;;;8.13;4.63;;;6.70;99.90;;;7.64;100.00;98649.00;5070118;28;20464;-79
2021/10/13 00:05:52;;;;;;;7.23;4.47;;;6.60;99.90;;;7.55;100.00;98651.59;5067755;28;20452;-79
2021/10/13 00:08:22;;;;;;;8.47;4.63;;;6.50;99.90;;;7.56;100.00;98653.22;5075056;28;20464;-79
2021/10/13 00:10:51;;;;;;;7.07;5.27;;;6.50;99.90;;;7.57;100.00;98659.22;5072387;28;20464;-79
2021/10/13 00:13:20;;;;;;;7.93;4.10;;;6.70;99.90;;;7.57;100.00;98660.03;5065945;28;20537;-79
2021/10/13 00:15:49;;;;;;;6.53;4.50;;;6.70;99.90;;;7.54;100.00;98659.53;5067529;28;20460;-79
2021/10/13 00:18:17;;;;;;;7.63;4.43;;;6.70;99.90;;;7.49;100.00;98662.59;5066657;28;20555;-79
2021/10/13 00:20:46;;;;;;;5.47;4.30;;;6.50;99.90;;;7.54;100.00;98659.53;5068752;28;20533;-79
2021/10/13 00:23:14;;;;;;;10.13;4.83;;;6.60;99.90;;;7.51;100.00;98657.22;5073214;28;21009;-79
2021/10/13 00:25:44;;;;;;;9.17;4.50;;;6.60;99.90;;;7.50;100.00;98663.41;5071067;28;21034;-80
2021/10/13 00:28:13;;;;;;;11.10;6.40;;;6.60;99.90;;;7.54;100.00;98670.75;5068241;28;20468;-80
2021/10/13 00:30:41;;;;;;;17.23;6.83;;;6.60;99.90;;;7.47;100.00;98672.34;5070336;28;20528;-79
2021/10/13 00:33:10;;;;;;;10.27;6.00;;;6.40;99.90;;;7.35;100.00;98672.75;5066397;28;20456;-79
2021/10/13 00:35:38;;;;;;;8.17;5.50;;;6.30;99.90;;;7.31;100.00;98680.03;5066151;28;20464;-79
2021/10/13 00:38:07;;;;;;;9.43;5.87;;;6.30;99.90;;;7.33;100.00;98685.06;5067666;28;20448;-79
2021/10/13 00:40:36;;;;;;;9.43;5.70;;;6.30;99.90;;;7.33;100.00;98688.47;5068680;28;20464;-80
2021/10/13 00:43:07;;;;;;;8.30;5.70;;;6.30;99.90;;;7.39;100.00;98687.88;5071189;28;20448;-79
2021/10/13 00:45:35;;;;;;;9.60;6.40;;;6.40;99.90;;;7.44;100.00;98688.25;5067872;28;21025;-80
2021/10/13 00:48:05;;;;;;;10.83;6.33;;;6.50;99.90;;;7.44;100.00;98683.06;5069272;28;20828;-80
2021/10/13 00:50:33;;;;;;;11.63;6.57;;;6.60;99.90;;;7.52;100.00;98688.31;5064951;28;20492;-79
2021/10/13 00:53:02;;;;;;;13.33;6.37;;;6.60;99.90;;;7.55;100.00;98688.00;5064039;28;20456;-79
2021/10/13 00:55:31;;;;;;;12.30;6.27;;;6.70;99.90;;;7.62;100.00;98695.19;5059304;28;20519;-79
2021/10/13 00:58:00;;;;;;;17.27;7.23;;;6.80;99.90;;;7.64;100.00;98698.47;5065528;28;20503;-79
2021/10/13 01:00:30;;;;;;;13.30;6.70;;;6.80;99.90;;;7.68;100.00;98699.78;5061802;28;20522;-80
2021/10/13 01:03:09;;;;;;;16.90;6.27;;;6.90;99.90;;;7.66;100.00;98699.16;5060889;28;20456;-80
2021/10/13 01:06:00;;;;;;;9.20;6.10;;;6.80;99.90;;;7.68;100.00;98703.22;5069570;28;20497;-79
2021/10/13 01:08:46;;;;;;;12.70;6.53;;;6.80;99.90;;;7.66;100.00;98696.53;5062358;28;20448;-79
2021/10/13 01:11:30;;;;;;;11.10;6.73;;;6.70;99.90;;;7.66;100.00;98704.34;5065672;28;20510;-80
2021/10/13 01:14:19;;;;;;;10.10;6.77;;;6.70;99.90;;;7.70;100.00;98706.50;5071370;28;20489;-79
2021/10/13 01:16:56;;;;;;;12.03;7.17;;;6.80;99.90;;;7.75;100.00;98711.22;5064503;28;20460;-79
2021/10/13 01:19:48;;;;;;;11.93;7.27;;;6.90;99.90;;;7.74;100.00;98709.63;5067961;28;20486;-79
2021/10/13 01:22:38;;;;;;;9.20;6.60;;;6.90;99.90;;;7.62;100.00;98709.03;5065032;28;20491;-80
2021/10/13 01:25:22;;;;;;;10.30;6.57;;;6.70;99.90;;;7.51;100.00;98714.47;5066737;28;20876;-80
2021/10/13 01:28:00;;;;;;;8.33;6.03;;;6.50;99.90;;;7.52;100.00;98711.75;5065810;28;21041;-79
2021/10/13 01:30:37;;;;;;;13.33;6.43;;;6.50;99.90;;;7.57;100.00;98712.09;5061926;28;20527;-80
2021/10/13 01:33:13;;;;;;;10.93;6.10;;;6.70;99.90;;;7.51;100.00;98707.50;5064331;28;20458;-80
2021/10/13 01:35:51;;;;;;;9.00;5.70;;;6.60;99.90;;;7.59;100.00;98701.53;5065103;28;20486;-79
2021/10/13 01:38:27;;;;;;;9.27;5.73;;;6.70;99.90;;;7.51;100.00;98704.06;5063080;28;21071;-80
2021/10/13 01:41:02;;;;;;;9.70;6.20;;;6.60;99.90;;;7.47;100.00;98703.56;5067946;28;20468;-79
2021/10/13 01:43:37;;;;;;;9.40;5.73;;;6.50;99.90;;;7.38;100.00;98704.47;5066277;28;20465;-79
2021/10/13 01:46:08;;;;;;;8.67;6.17;;;6.40;99.90;;;7.33;100.00;98701.50;5062206;28;20482;-79
2021/10/13 01:48:39;;;;;;;8.67;6.33;;;6.40;99.90;;;7.27;100.00;98703.88;5062700;28;20497;-79
2021/10/13 01:51:09;;;;;;;8.43;6.10;;;6.30;99.90;;;7.26;100.00;98697.84;5067596;28;20499;-79
2021/10/13 01:53:41;;;;;;;7.73;5.13;;;6.30;99.90;;;7.22;100.00;98706.91;5062257;28;20457;-79
2021/10/13 01:56:13;;;;;;;6.30;4.83;;;6.30;99.90;;;7.23;100.00;98705.13;5067220;28;20484;-79
2021/10/13 01:58:45;;;;;;;10.10;6.33;;;6.40;99.90;;;7.22;100.00;98709.50;5060476;28;20579;-79
2021/10/13 02:01:16;;;;;;;12.00;7.23;;;6.30;99.90;;;7.26;100.00;98708.25;5057365;28;20487;-80
2021/10/13 02:03:49;;;;;;;8.67;6.07;;;6.50;99.90;;;7.23;100.00;98716.38;5066090;28;20453;-79
2021/10/13 02:06:42;;;;;;;6.47;5.50;;;6.40;99.90;;;7.14;100.00;98712.06;5067532;28;20467;-79
2021/10/13 02:09:11;;;;;;;7.23;5.40;;;6.10;99.90;;;7.07;100.00;98718.81;5066154;28;20549;-79
2021/10/13 02:11:42;;;;;;;8.30;5.30;;;6.10;99.90;;;7.13;100.00;98720.00;5057296;28;20548;-79
2021/10/13 02:14:17;;;;;;;12.43;5.77;;;6.20;99.90;;;7.15;100.00;98718.09;5062486;28;20451;-79
2021/10/13 02:16:50;;;;;;;7.43;5.40;;;6.20;99.90;;;7.12;100.00;98724.38;5062850;28;20463;-79
2021/10/13 02:19:22;;;;;;;11.10;6.50;;;6.20;99.90;;;7.13;100.00;98720.81;5063044;28;20463;-80
2021/10/13 02:21:55;;;;;;;8.47;5.77;;;6.10;99.90;;;7.16;100.00;98714.50;5066105;28;20459;-79
2021/10/13 02:24:30;;;;;;;8.33;5.73;;;6.20;99.90;;;7.20;100.00;98711.47;5065224;28;20517;-79
2021/10/13 02:27:06;;;;;;;8.80;6.00;;;6.30;99.90;;;7.24;100.00;98715.41;5064780;28;20517;-80
2021/10/13 02:29:39;;;;;;;18.20;6.20;;;6.30;99.90;;;7.29;100.00;98718.34;5060231;28;20531;-79
2021/10/13 02:32:08;;;;;;;44.03;6.60;;;6.40;99.90;;;7.27;100.00;98722.91;5061233;28;20456;-80
2021/10/13 02:34:39;;;;;;;55.83;6.30;;;6.30;99.90;;;7.30;100.00;98720.00;5068111;28;20521;-79
2021/10/13 02:37:09;;;;;;;53.93;6.53;;;6.40;99.90;;;7.29;100.00;98720.97;5061595;28;20533;-79
2021/10/13 02:39:37;;;;;;;20.07;5.13;;;6.40;99.90;;;7.27;100.00;98719.47;5064452;28;20528;-79
2021/10/13 02:42:09;;;;;;;39.90;6.03;;;6.30;99.90;;;7.27;100.00;98724.69;5062517;28;20495;-80
2021/10/13 02:44:41;;;;;;;19.17;5.53;;;6.30;99.90;;;7.27;100.00;98735.09;5062849;28;20828;-79
2021/10/13 02:47:16;;;;;;;48.37;5.70;;;6.30;99.90;;;7.18;100.00;98731.63;5064804;28;20476;-80
2021/10/13 02:49:53;;;;;;;42.30;5.33;;;6.20;99.90;;;7.22;100.00;98726.94;5072687;28;21098;-80
2021/10/13 02:52:33;;;;;;;52.37;5.00;;;6.20;99.90;;;7.24;100.00;98736.22;5068085;28;20541;-80
2021/10/13 02:55:06;;;;;;;10.30;4.73;;;6.30;99.90;;;7.23;100.00;98739.78;5067324;28;20542;-80
2021/10/13 02:57:41;;;;;;;12.23;4.60;;;6.30;99.90;;;7.21;100.00;98735.69;5076513;28;20463;-80
2021/10/13 03:00:14;;;;;;;8.13;4.60;;;6.30;99.90;;;7.21;100.00;98730.50;5068688;28;20459;-80
2021/10/13 03:02:53;;;;;;;23.43;4.10;;;6.30;99.90;;;7.09;100.00;98733.31;5070175;28;20464;-80
2021/10/13 03:05:27;;;;;;;7.90;4.50;;;6.20;99.90;;;7.11;100.00;98740.97;5065868;28;20572;-80
2021/10/13 03:08:03;;;;;;;21.27;4.67;;;6.10;99.90;;;7.15;100.00;98744.09;5071088;28;20980;-80
2021/10/13 03:10:34;;;;;;;12.83;4.70;;;6.20;99.90;;;7.13;100.00;98738.22;5067416;28;20488;-79
2021/10/13 03:13:08;;;;;;;35.90;5.70;;;6.20;99.90;;;7.14;100.00;98742.44;5068168;28;20892;-79
2021/10/13 03:15:42;;;;;;;21.23;4.83;;;6.20;99.90;;;7.13;100.00;98749.44;5068479;28;20468;-79
2021/10/13 03:18:13;;;;;;;9.60;4.10;;;6.20;99.90;;;7.12;100.00;98746.97;5070127;28;21007;-81
2021/10/13 03:20:43;;;;;;;10.90;4.43;;;6.20;99.90;;;7.07;100.00;98745.66;5066933;28;20461;-80
2021/10/13 03:23:14;;;;;;;22.10;7.10;;;6.10;99.90;;;7.05;100.00;98751.94;5071974;28;20872;-78
2021/10/13 03:25:42;;;;;;;31.57;5.37;;;6.10;99.90;;;7.05;100.00;98757.97;5070057;28;20501;-80
2021/10/13 03:28:14;;;;;;;29.33;4.40;;;6.10;99.90;;;6.99;100.00;98758.56;5072047;28;20452;-79
2021/10/13 03:30:45;;;;;;;27.97;4.53;;;6.00;99.90;;;6.96;100.00;98765.84;5071803;28;20525;-79
2021/10/13 03:33:14;;;;;;;10.93;4.40;;;6.00;99.90;;;6.90;100.00;98764.66;5065903;28;20484;-79
2021/10/13 03:35:42;;;;;;;36.27;5.10;;;6.00;99.90;;;6.88;100.00;98765.72;5070004;28;20456;-80
2021/10/13 03:38:11;;;;;;;45.10;5.00;;;6.00;99.90;;;6.86;100.00;98767.69;5070136;28;20530;-80
2021/10/13 03:40:40;;;;;;;32.57;7.20;;;6.00;99.90;;;6.87;100.00;98777.13;5068710;28;20546;-79
2021/10/13 03:43:11;;;;;;;23.00;4.80;;;5.90;99.90;;;6.88;100.00;98779.56;5068208;28;20784;-79
2021/10/13 03:45:40;;;;;;;42.53;4.27;;;6.00;99.90;;;6.88;100.00;98781.34;5064572;28;20535;-79
2021/10/13 03:48:10;;;;;;;6.47;3.63;;;6.00;99.90;;;6.82;100.00;98782.75;5068136;28;20789;-79
2021/10/13 03:50:39;;;;;;;12.20;3.83;;;5.90;99.90;;;6.81;100.00;98793.28;5067576;28;20464;-79
2021/10/13 03:53:08;;;;;;;9.27;3.90;;;5.90;99.90;;;6.77;100.00;98792.75;5064938;28;20456;-79
2021/10/13 03:55:37;;;;;;;9.30;3.90;;;5.80;99.90;;;6.72;100.00;98786.34;5063471;28;20546;-79
2021/10/13 03:58:05;;;;;;;3.97;3.23;;;5.80;99.90;;;6.70;100.00;98788.28;5069813;28;20456;-79
2021/10/13 04:00:34;;;;;;;7.80;3.83;;;5.80;99.90;;;6.71;100.00;98790.72;5068108;28;20457;-79
2021/10/13 04:03:02;;;;;;;4.40;3.57;;;5.80;99.90;;;6.72;100.00;98801.94;5069041;28;20456;-79
2021/10/13 04:05:32;;;;;;;4.13;3.63;;;5.80;99.90;;;6.71;100.00;98798.53;5069765;28;20460;-79
2021/10/13 04:08:01;;;;;;;3.60;3.20;;;5.80;99.90;;;6.73;100.00;98803.59;5062792;28;20502;-79
2021/10/13 04:10:29;;;;;;;9.97;3.93;;;5.80;99.90;;;6.74;100.00;98798.22;5074579;28;20979;-78
2021/10/13 04:12:58;;;;;;;4.77;3.67;;;5.80;99.90;;;6.74;100.00;98813.81;5068249;28;20770;-78
2021/10/13 04:15:26;;;;;;;3.30;3.00;;;5.90;99.90;;;6.75;100.00;98812.88;5067938;28;20640;-78
2021/10/13 04:17:55;;;;;;;4.63;3.50;;;5.90;99.90;;;6.73;100.00;98813.97;5065314;28;20456;-79
2021/10/13 04:20:23;;;;;;;5.30;3.30;;;5.80;99.90;;;6.71;100.00;98816.72;5068935;28;20467;-78
2021/10/13 04:22:53;;;;;;;3.93;3.30;;;5.80;99.90;;;6.66;100.00;98816.34;5071869;28;20456;-78
2021/10/13 04:25:22;;;;;;;15.83;4.83;;;5.70;99.90;;;6.63;100.00;98811.41;5069701;28;20448;-77
2021/10/13 04:27:51;;;;;;;14.03;4.53;;;5.70;99.90;;;6.68;100.00;98810.97;5070178;28;20517;-78
2021/10/13 04:30:19;;;;;;;7.00;4.23;;;5.80;99.90;;;6.67;100.00;98814.53;5068272;28;20510;-78
2021/10/13 04:32:48;;;;;;;5.40;4.20;;;5.80;99.90;;;6.64;100.00;98809.63;5066718;28;20546;-78
2021/10/13 04:35:16;;;;;;;4.60;3.97;;;5.70;99.90;;;6.67;100.00;98817.97;5069688;28;20857;-76
2021/10/13 04:37:45;;;;;;;6.10;4.40;;;5.80;99.90;;;6.63;100.00;98815.81;5068034;28;20445;-76
2021/10/13 04:40:15;;;;;;;6.90;4.70;;;5.70;99.90;;;6.59;100.00;98818.66;5072387;28;20440;-76
2021/10/13 04:42:43;;;;;;;7.37;4.80;;;5.60;99.90;;;6.57;100.00;98825.78;5070511;28;20453;-76
2021/10/13 04:45:12;;;;;;;5.43;4.10;;;5.60;99.90;;;6.58;100.00;98821.44;5069989;28;20791;-77
2021/10/13 04:47:41;;;;;;;6.93;5.50;;;5.60;99.90;;;6.56;100.00;98818.94;5069413;28;20524;-76
2021/10/13 04:50:10;;;;;;;6.07;4.13;;;5.60;99.90;;;6.58;100.00;98817.06;5082390;28;20934;-76
2021/10/13 04:52:39;;;;;;;12.93;5.03;;;5.70;99.90;;;6.59;100.00;98821.25;5078669;28;21026;-77
2021/10/13 04:55:11;;;;;;;5.80;4.50;;;5.70;99.90;;;6.61;100.00;98822.91;5077993;28;20563;-76
2021/10/13 04:57:41;;;;;;;7.07;5.10;;;5.70;99.90;;;6.64;100.00;98822.63;5069070;28;20436;-77
2021/10/13 05:00:14;;;;;;;6.50;4.63;;;5.70;99.90;;;6.68;100.00;98829.19;5071162;28;20859;-76
2021/10/13 05:02:42;;;;;;;7.37;5.07;;;5.80;99.90;;;6.70;100.00;98835.06;5080780;28;20505;-76
2021/10/13 05:05:12;;;;;;;7.40;5.60;;;5.80;99.90;;;6.70;100.00;98835.06;5064570;28;20460;-76
2021/10/13 05:07:40;;;;;;;5.03;4.20;;;5.80;99.90;;;6.71;100.00;98831.47;5070493;28;20452;-76
2021/10/13 05:10:09;;;;;;;5.63;4.70;;;5.80;99.90;;;6.72;100.00;98846.13;5064460;28;20440;-77
2021/10/13 05:12:39;;;;;;;6.60;5.30;;;5.80;99.90;;;6.72;100.00;98843.53;5065113;28;20521;-76
2021/10/13 05:15:09;;;;;;;10.00;4.60;;;5.80;99.90;;;6.69;100.00;98844.63;5069268;28;20431;-76
2021/10/13 05:17:37;;;;;;;6.17;4.60;;;5.70;99.90;;;6.68;100.00;98842.16;5070953;28;20851;-76
2021/10/13 05:20:08;;;;;;;6.57;4.33;;;5.70;99.90;;;6.68;100.00;98842.16;5070274;28;20940;-76
2021/10/13 05:22:36;;;;;;;9.30;4.93;;;5.70;99.90;;;6.70;100.00;98842.88;5067656;28;20456;-76
2021/10/13 05:25:07;;;;;;;7.67;4.53;;;5.80;99.90;;;6.67;100.00;98835.31;5078416;28;20459;-77
2021/10/13 05:27:36;;;;;;;6.57;4.70;;;5.70;99.90;;;6.67;100.00;98835.31;5068724;28;20448;-76
2021/10/13 05:30:07;;;;;;;9.70;5.50;;;5.70;99.90;;;6.72;100.00;98833.94;5070503;28;20441;-76
2021/10/13 05:32:36;;;;;;;7.87;5.03;;;5.80;99.90;;;6.76;100.00;98834.47;5071640;28;20495;-77
2021/10/13 05:35:05;;;;;;;9.00;5.67;;;5.90;99.90;;;6.78;100.00;98838.56;5072531;28;20490;-76
2021/10/13 05:37:33;;;;;;;6.30;5.53;;;5.90;99.90;;;6.80;100.00;98846.25;5072217;28;20440;-77
2021/10/13 05:40:02;;;;;;;7.63;5.10;;;5.90;99.90;;;6.79;100.00;98842.00;5067446;28;20953;-77
2021/10/13 05:42:30;;;;;;;6.90;4.30;;;6.00;99.90;;;6.81;100.00;98847.84;5062754;28;20510;-77
2021/10/13 05:44:59;;;;;;;5.50;4.57;;;6.00;99.90;;;6.80;100.00;98839.25;5069924;28;20530;-76
2021/10/13 05:47:29;;;;;;;6.20;4.50;;;5.90;99.90;;;6.79;100.00;98852.38;5075105;28;20475;-76
2021/10/13 05:49:57;;;;;;;5.43;4.57;;;5.90;99.90;;;6.83;100.00;98864.13;5071428;28;20520;-77
2021/10/13 05:52:26;;;;;;;6.43;4.33;;;6.00;99.90;;;6.78;100.00;98859.38;5069627;28;20528;-77
2021/10/13 05:54:54;;;;;;;6.70;5.00;;;5.90;99.90;;;6.72;100.00;98861.72;5065211;28;20469;-76
2021/10/13 05:57:23;;;;;;;6.97;4.80;;;5.80;99.90;;;6.70;100.00;98866.25;5068964;28;20529;-77
2021/10/13 05:59:57;;;;;;;13.40;5.90;;;5.80;99.90;;;6.67;100.00;98866.50;5069906;28;20444;-76
2021/10/13 06:02:25;;;;;;;11.63;5.00;;;5.70;99.90;;;6.68;100.00;98861.19;5069882;28;20439;-77
2021/10/13 06:04:55;;;;;;;7.67;5.20;;;5.70;99.90;;;6.68;100.00;98868.97;5068695;28;20547;-76
2021/10/13 06:07:24;;;;;;;6.97;5.07;;;5.70;99.90;;;6.67;100.00;98875.13;5069128;28;20440;-76
2021/10/13 06:09:52;;;;;;;6.67;4.93;;;5.70;99.90;;;6.63;100.00;98868.56;5069018;28;20907;-76
2021/10/13 06:12:21;;;;;;;7.00;4.33;;;5.70;99.90;;;6.68;100.00;98881.16;5067354;28;20507;-77
2021/10/13 06:14:50;;;;;;;6.17;4.27;;;5.80;99.90;;;6.71;100.00;98883.47;5072148;28;20936;-76
2021/10/13 06:17:20;;;;;;;4.60;3.37;;;5.70;99.90;;;6.60;100.00;98879.25;5064307;28;20464;-77
2021/10/13 06:19:49;;;;;;;5.70;4.53;;;5.70;99.90;;;6.57;100.00;98892.53;5066606;28;20444;-77
2021/10/13 06:22:19;;;;;;;6.00;4.60;;;5.60;99.90;;;6.62;100.00;98899.91;5070468;28;20493;-76
2021/10/13 06:24:47;;;;;;;7.00;4.90;;;5.70;99.90;;;6.71;100.00;98888.66;5073315;28;20864;-77
2021/10/13 06:27:16;;;;;;;5.57;3.97;;;5.80;99.90;;;6.68;100.00;98899.34;5066481;28;20457;-76
2021/10/13 06:29:44;;;;;;;8.60;4.60;;;5.80;99.90;;;6.66;100.00;98883.91;5069287;28;20462;-76
2021/10/13 06:32:13;;;;;;;5.10;4.17;;;5.70;99.90;;;6.68;100.00;98883.75;5074632;28;20492;-76
2021/10/13 06:34:41;;;;;;;5.20;4.10;;;5.80;99.90;;;6.74;100.00;98894.38;5073419;28;20538;-76
2021/10/13 06:37:10;;;;;;;6.10;4.30;;;5.90;99.90;;;6.74;100.00;98894.38;5073079;28;20464;-76
2021/10/13 06:39:40;;;;;;;6.10;3.90;;;5.90;99.90;;;6.68;100.00;98894.13;5073259;28;20501;-76
2021/10/13 06:42:09;;;;;;;6.53;4.30;;;5.80;99.90;;;6.69;100.00;98895.78;5072263;28;20497;-76
2021/10/13 06:44:37;;;;;;;6.23;3.80;;;5.80;99.90;;;6.67;100.00;98905.50;5074285;28;20468;-76
2021/10/13 06:47:06;;;;;;;5.10;4.30;;;5.80;99.90;;;6.65;100.00;98908.25;5069888;28;20502;-76
2021/10/13 06:49:34;;;;;;;9.43;4.10;;;5.80;99.90;;;6.64;100.00;98913.56;5075576;28;20497;-77
2021/10/13 06:52:03;;;;;;;5.13;4.30;;;5.70;99.90;;;6.61;100.00;98909.47;5075897;28;21071;-76
2021/10/13 06:54:31;;;;;;;8.57;4.50;;;5.70;99.90;;;6.58;100.00;98918.38;5075218;28;20451;-76
2021/10/13 06:57:01;;;;;;;5.57;3.87;;;5.70;99.90;;;6.67;100.00;98928.88;5071838;28;20474;-76
2021/10/13 06:59:30;;;;;;;4.90;3.90;;;5.80;99.90;;;6.72;100.00;98935.31;5070879;28;20983;-76
2021/10/13 07:01:58;;;;;;;6.57;4.40;;;5.80;99.90;;;6.68;100.00;98930.53;5072143;28;20444;-76
2021/10/13 07:04:27;;;;;;;6.90;4.40;;;5.80;99.90;;;6.72;100.00;98939.69;5069571;28;20883;-76
2021/10/13 07:06:56;;;;;;;5.17;3.73;;;5.80;99.90;;;6.74;100.00;98940.34;5074855;28;20448;-76
2021/10/13 07:09:24;;;;;;;6.77;4.47;;;5.80;99.90;;;6.82;100.00;98943.06;5066131;28;20440;-76
2021/10/13 07:11:52;;;;;;;11.13;5.40;;;5.90;99.90;;;6.88;100.00;98947.69;5074327;28;20448;-77
2021/10/13 07:14:22;;;;;;;6.70;4.80;;;6.00;99.90;;;6.88;100.00;98942.50;5073138;28;20440;-77
2021/10/13 07:16:51;;;;;;;12.17;5.27;;;6.00;99.90;;;6.92;100.00;98944.69;5078376;28;20466;-76
2021/10/13 07:19:19;;;;;;;6.90;4.57;;;6.00;99.90;;;6.97;100.00;98954.66;5078057;28;20459;-77
2021/10/13 07:21:48;;;;;;;7.33;5.10;;;6.10;99.90;;;7.02;100.00;98949.84;5068295;28;20439;-76
2021/10/13 07:24:16;;;;;;;11.20;5.90;;;6.10;99.90;;;7.04;100.00;98946.16;5068262;28;20464;-76
2021/10/13 07:26:45;;;;;;;7.60;5.03;;;6.20;99.90;;;7.13;100.00;98952.28;5071513;28;20452;-76
2021/10/13 07:29:14;;;;;;;6.20;4.60;;;6.20;99.90;;;7.19;100.00;98956.91;5072028;28;20452;-77
2021/10/13 07:31:44;;;;;;;11.40;5.20;;;6.30;99.90;;;7.22;100.00;98956.59;5069133;28;21010;-76
2021/10/13 07:34:12;;;;;;;7.67;5.30;;;6.40;99.90;;;7.30;100.00;98956.72;5072584;28;20510;-76
2021/10/13 07:36:41;;;;;;;10.30;5.03;;;6.50;99.90;;;7.35;100.00;98951.91;5071667;28;20434;-77
2021/10/13 07:39:10;;;;;;;6.43;5.00;;;6.50;99.90;;;7.42;100.00;98957.38;5067944;28;20530;-77
2021/10/13 07:41:39;;;;;;;7.20;5.43;;;6.60;99.90;;;7.48;100.00;98952.41;5073286;28;20447;-76
2021/10/13 07:44:08;;;;;;;9.30;5.90;;;6.60;99.90;;;7.55;100.00;98953.47;5065297;28;20972;-76
2021/10/13 07:46:37;;;;;;;10.20;6.07;;;6.70;99.90;;;7.60;100.00;98948.63;5079988;28;20439;-77
2021/10/13 07:49:07;;;;;;;14.03;6.20;;;6.80;99.90;;;7.67;100.00;98950.66;5076164;28;20531;-76
2021/10/13 07:51:35;;;;;;;7.50;5.57;;;6.80;99.90;;;7.73;100.00;98955.28;5068411;28;20449;-77
2021/10/13 07:54:04;;;;;;;10.20;5.30;;;6.90;99.90;;;7.80;100.00;98951.13;5068977;28;20487;-77
2021/10/13 07:56:32;;;;;;;6.23;5.00;;;7.10;99.90;;;7.86;100.00;98950.53;5073684;28;20488;-77
2021/10/13 07:59:01;;;;;;;7.60;5.43;;;7.10;99.90;;;7.91;100.00;98953.50;5074531;28;20512;-77
2021/10/13 08:01:30;;;;;;;6.80;4.80;;;7.20;99.90;;;7.97;100.00;98958.13;5067869;28;20456;-77
2021/10/13 08:03:58;;;;;;;7.93;5.17;;;7.30;99.90;;;8.03;100.00;98962.72;5067204;28;20452;-77
2021/10/13 08:06:29;;;;;;;7.27;5.10;;;7.30;99.90;;;8.05;100.00;98960.81;5069502;28;20620;-77
2021/10/13 08:08:57;;;;;;;7.40;4.53;;;7.30;99.90;;;8.09;100.00;98964.75;5074175;28;20494;-76
2021/10/13 08:11:26;;;;;;;7.70;5.70;;;7.30;99.90;;;8.13;100.00;98971.28;5061925;28;20945;-77
2021/10/13 08:13:54;;;;;;;6.27;5.17;;;7.40;99.90;;;8.19;100.00;98967.28;5073461;28;20573;-77
2021/10/13 15:07:38;;;;;;;1.53;1.10;;;11.70;99.90;;;12.30;100.00;99015.97;5046192;28;20479;-78
2021/10/13 15:10:08;;;;;;;5.70;1.50;;;11.60;99.90;;;12.28;100.00;99016.16;5068340;28;20456;-78
2021/10/13 15:12:37;;;;;;;4.23;1.60;;;11.50;99.90;;;12.31;100.00;99013.19;5070757;28;20940;-78
2021/10/13 15:15:06;;;;;;;6.43;1.60;;;11.70;99.90;;;12.27;100.00;99022.38;5073269;28;20496;-78
2021/10/13 15:17:35;;;;;;;76.80;36.87;;;11.60;99.90;;;12.28;100.00;99034.53;5066484;28;20460;-77
2021/10/13 15:20:05;;;;;;;4.73;2.20;;;11.60;99.90;;;12.25;100.00;99031.41;5063804;28;20504;-78
2021/10/13 15:22:50;;;;;;;5.20;1.67;;;11.50;99.90;;;12.28;100.00;99033.69;5070332;28;20940;-78
2021/10/13 15:25:19;;;;;;;3.33;1.50;;;11.50;99.90;;;12.28;100.00;99026.66;5068256;28;20515;-78
2021/10/13 15:27:48;;;;;;;2.37;1.60;;;11.50;99.90;;;12.27;100.00;99027.63;5069718;28;20467;-78
2021/10/13 15:30:16;;;;;;;2.67;1.37;;;11.50;99.90;;;12.27;100.00;99027.63;5067489;28;20463;-78
2021/10/13 15:32:45;;;;;;;2.03;1.70;;;11.50;99.90;;;12.25;100.00;99024.34;5065694;28;20461;-78
2021/10/13 15:35:13;;;;;;;6.20;2.73;;;11.50;99.90;;;12.24;100.00;99022.72;5072996;28;20499;-78
2021/10/13 15:37:42;;;;;;;3.97;2.70;;;11.50;99.90;;;12.24;100.00;99027.97;5072984;28;20529;-78
2021/10/13 15:40:13;;;;;;;4.40;2.17;;;11.50;99.90;;;12.26;100.00;99030.41;5058946;28;20459;-78
2021/10/13 15:42:41;;;;;;;5.33;2.87;;;11.50;99.90;;;12.21;100.00;99033.56;5059526;28;20472;-79
2021/10/13 15:45:11;;;;;;;3.27;1.80;;;11.50;99.90;;;12.09;100.00;99019.22;5068258;28;20921;-78
2021/10/13 15:47:41;;;;;;;2.30;1.60;;;11.30;99.90;;;12.07;100.00;99026.44;5070862;28;20440;-78
2021/10/13 15:50:18;;;;;;;2.67;1.43;;;11.30;99.90;;;12.00;100.00;99030.75;5065058;28;20653;-78
2021/10/13 15:52:46;;;;;;;4.30;1.40;;;11.10;99.90;;;11.93;100.00;99027.16;5068659;28;20480;-78
2021/10/13 15:55:16;;;;;;;6.07;1.80;;;11.10;99.90;;;11.81;100.00;99031.97;5063421;28;21183;-78
2021/10/13 15:57:49;;;;;;;2.40;1.50;;;11.00;99.90;;;11.77;100.00;99030.66;5064679;28;20464;-78
2021/10/13 16:00:17;;;;;;;4.90;1.40;;;11.00;99.90;;;11.72;100.00;99034.78;5067018;28;20506;-77
2021/10/13 16:02:46;;;;;;;5.87;1.83;;;11.00;99.90;;;11.51;100.00;99030.91;5069360;28;20483;-77
2021/10/13 16:05:15;;;;;;;3.43;1.50;;;10.70;99.90;;;11.43;100.00;99041.41;5068952;28;20506;-78
2021/10/13 16:07:44;;;;;;;2.13;1.30;;;10.50;99.90;;;11.30;100.00;99043.72;5068458;28;20564;-78
2021/10/13 16:10:26;;;;;;;2.70;1.50;;;10.40;99.90;;;11.17;100.00;99043.44;5072301;28;21004;-79
2021/10/13 16:13:01;;;;;;;2.37;1.53;;;10.20;99.90;;;11.15;100.00;99047.16;5067946;28;20468;-78
2021/10/13 16:15:39;;;;;;;1.73;1.60;;;10.20;99.90;;;11.10;100.00;99045.06;5074145;28;20492;-80
2021/10/13 16:18:18;;;;;;;3.20;1.53;;;10.20;99.90;;;11.16;100.00;99044.41;5071013;28;20551;-78
2021/10/13 16:20:49;;;;;;;4.87;1.40;;;10.20;99.90;;;11.16;100.00;99047.00;5071735;28;20472;-77
2021/10/13 16:23:19;;;;;;;3.47;1.60;;;10.20;99.90;;;11.15;100.00;99058.47;5072775;28;20515;-77
2021/10/13 16:25:49;;;;;;;2.27;1.50;;;10.20;99.90;;;11.03;100.00;99054.56;5066913;28;20472;-77
2021/10/13 16:28:18;;;;;;;2.53;1.70;;;10.20;99.90;;;10.93;100.00;99064.38;5067758;28;20998;-77
2021/10/13 16:30:47;;;;;;;3.73;1.47;;;10.00;99.90;;;10.89;100.00;99063.06;5071632;28;20935;-78
2021/10/13 16:33:16;;;;;;;5.07;1.70;;;10.00;99.90;;;10.84;100.00;99060.13;5079267;28;20842;-77
2021/10/13 16:35:46;;;;;;;5.50;1.90;;;9.90;99.90;;;10.89;100.00;99055.22;5069232;28;20987;-77
2021/10/13 16:38:15;;;;;;;3.07;1.60;;;10.00;99.90;;;10.92;100.00;99052.28;5072377;28;20479;-77
2021/10/13 16:40:44;;;;;;;3.33;1.80;;;10.00;99.90;;;10.85;100.00;99056.53;5069826;28;20823;-77
2021/10/13 16:43:14;;;;;;;4.50;3.30;;;10.00;99.90;;;10.92;100.00;99060.13;5066502;28;20460;-77
2021/10/13 16:45:47;;;;;;;3.47;2.50;;;10.00;99.90;;;10.98;100.00;99065.50;5059175;28;20468;-77
2021/10/13 16:48:17;;;;;;;5.93;2.40;;;10.10;99.90;;;11.01;100.00;99066.97;5064915;28;20471;-77
2021/10/13 16:50:47;;;;;;;3.97;2.40;;;10.10;99.90;;;11.03;100.00;99068.47;5062314;28;20510;-77
2021/10/13 16:53:15;;;;;;;6.30;3.80;;;10.10;99.90;;;11.05;100.00;99073.53;5065347;28;20940;-77
2021/10/13 16:55:44;;;;;;;7.50;3.70;;;10.20;99.90;;;11.04;100.00;99070.09;5058015;28;20484;-77
2021/10/13 16:58:14;;;;;;;4.43;2.60;;;10.20;99.90;;;11.02;100.00;99072.06;5072540;28;20512;-78
2021/10/13 17:00:42;;;;;;;18.07;9.57;;;10.20;99.90;;;10.99;100.00;99077.63;5071140;28;21053;-78
2021/10/13 17:03:12;;;;;;;4.00;2.10;;;10.10;99.90;;;10.96;100.00;99079.75;5079207;28;20459;-77
2021/10/13 17:05:41;;;;;;;4.20;2.67;;;10.20;99.90;;;10.89;100.00;99082.22;5074666;28;20551;-78
2021/10/13 17:08:09;;;;;;;4.23;2.40;;;10.00;99.90;;;10.92;100.00;99084.50;5065059;28;20558;-77
2021/10/13 17:10:38;;;;;;;7.27;2.30;;;10.10;99.90;;;10.86;100.00;99086.94;5067819;28;20506;-77
2021/10/13 17:13:09;;;;;;;3.83;1.70;;;10.00;99.90;;;10.74;100.00;99086.44;5069090;28;20464;-78
2021/10/13 17:15:40;;;;;;;5.13;1.47;;;9.80;99.90;;;10.74;100.00;99086.44;5060638;28;20495;-77
2021/10/13 17:18:09;;;;;;;3.17;1.50;;;9.90;99.90;;;10.74;100.00;99093.47;5062411;28;21105;-77
2021/10/13 17:20:38;;;;;;;6.87;1.77;;;9.90;99.90;;;10.71;100.00;99089.38;5070189;28;20999;-78
2021/10/13 17:23:06;;;;;;;3.20;2.23;;;9.90;99.90;;;10.71;100.00;99088.56;5072702;28;20502;-77
2021/10/13 17:25:35;;;;;;;6.00;2.50;;;9.90;99.90;;;10.77;100.00;99103.59;5076952;28;20513;-78